createdAt,value
2018-09-12T00:01:47.749Z,17.10
2018-09-12T00:04:16.290Z,17.10
2018-09-12T00:06:44.864Z,17.10
2018-09-12T00:09:13.405Z,17.10
2018-09-12T00:11:41.995Z,17.10
2018-09-12T00:14:10.579Z,17.10
2018-09-12T00:16:39.092Z,17.10
2018-09-12T00:19:08.185Z,17.00
2018-09-12T00:21:37.187Z,17.00
2018-09-12T00:24:06.342Z,17.00
2018-09-12T00:26:34.984Z,17.00
2018-09-12T00:29:03.523Z,17.00
2018-09-12T00:31:32.039Z,16.90
2018-09-12T00:34:00.600Z,16.90
2018-09-12T00:36:29.136Z,16.90
2018-09-12T00:38:57.691Z,16.80
2018-09-12T00:41:26.217Z,16.80
2018-09-12T00:43:54.906Z,16.70
2018-09-12T00:46:23.440Z,16.70
2018-09-12T00:48:51.958Z,16.70
2018-09-12T00:51:20.513Z,16.70
2018-09-12T00:53:49.063Z,16.60
2018-09-12T00:56:17.864Z,16.60
2018-09-12T00:58:46.428Z,16.60
2018-09-12T01:01:14.941Z,16.50
2018-09-12T01:03:43.488Z,16.50
2018-09-12T01:06:12.071Z,16.50
2018-09-12T01:08:40.599Z,16.50
2018-09-12T01:11:09.113Z,16.40
2018-09-12T01:13:37.662Z,16.40
2018-09-12T01:16:06.208Z,16.40
2018-09-12T01:18:34.752Z,16.30
2018-09-12T01:21:03.313Z,16.30
2018-09-12T01:23:32.123Z,16.30
2018-09-12T01:26:00.640Z,16.30
2018-09-12T01:28:29.167Z,16.20
2018-09-12T01:30:57.711Z,16.20
2018-09-12T01:33:26.260Z,16.20
2018-09-12T01:35:54.800Z,16.10
2018-09-12T01:38:23.339Z,16.10
2018-09-12T01:40:51.902Z,16.10
2018-09-12T01:43:20.472Z,16.00
2018-09-12T01:45:48.993Z,16.00
2018-09-12T01:48:18.223Z,15.90
2018-09-12T01:50:46.840Z,15.90
2018-09-12T01:53:15.389Z,15.90
2018-09-12T01:55:44.144Z,15.90
2018-09-12T01:58:12.678Z,15.80
2018-09-12T02:00:42.218Z,15.80
2018-09-12T02:03:11.321Z,15.70
2018-09-12T02:05:40.104Z,15.70
2018-09-12T02:08:08.907Z,15.70
2018-09-12T02:10:37.688Z,15.70
2018-09-12T02:13:06.278Z,15.60
2018-09-12T02:15:34.820Z,15.60
2018-09-12T02:18:03.380Z,15.60
2018-09-12T02:20:31.924Z,15.60
2018-09-12T02:23:00.454Z,15.50
2018-09-12T02:25:29.101Z,15.50
2018-09-12T02:27:57.944Z,15.50
2018-09-12T02:30:26.464Z,15.50
2018-09-12T02:32:54.985Z,15.50
2018-09-12T02:35:23.563Z,15.50
2018-09-12T02:37:52.078Z,15.40
2018-09-12T02:40:20.623Z,15.40
2018-09-12T02:42:49.146Z,15.40
2018-09-12T02:45:17.872Z,15.30
2018-09-12T02:47:46.682Z,15.30
2018-09-12T02:50:15.284Z,15.30
2018-09-12T02:52:43.851Z,15.30
2018-09-12T02:55:13.411Z,15.20
2018-09-12T02:57:42.158Z,15.20
2018-09-12T03:00:10.988Z,15.10
2018-09-12T03:02:39.571Z,15.10
2018-09-12T03:05:08.172Z,15.10
2018-09-12T03:07:36.735Z,15.10
2018-09-12T03:10:06.397Z,15.10
2018-09-12T03:12:35.001Z,15.10
2018-09-12T03:15:03.559Z,15.10
2018-09-12T03:17:32.081Z,15.10
2018-09-12T03:20:00.649Z,15.10
2018-09-12T03:22:29.175Z,15.20
2018-09-12T03:24:57.705Z,15.20
2018-09-12T03:27:26.296Z,15.20
2018-09-12T03:29:54.839Z,15.20
2018-09-12T03:32:23.395Z,15.20
2018-09-12T03:34:52.187Z,15.30
2018-09-12T03:37:20.717Z,15.30
2018-09-12T03:39:49.232Z,15.20
2018-09-12T03:42:17.779Z,15.20
2018-09-12T03:44:46.297Z,15.20
2018-09-12T03:47:15.021Z,15.20
2018-09-12T03:49:43.542Z,15.20
2018-09-12T03:52:12.090Z,15.20
2018-09-12T03:54:40.617Z,15.10
2018-09-12T03:57:09.166Z,15.10
2018-09-12T03:59:37.684Z,15.10
2018-09-12T04:02:06.398Z,15.10
2018-09-12T04:04:35.001Z,15.00
2018-09-12T04:07:03.590Z,15.00
2018-09-12T04:09:32.114Z,15.00
2018-09-12T04:12:00.897Z,14.90
2018-09-12T04:14:29.432Z,14.90
2018-09-12T04:16:57.979Z,14.90
2018-09-12T04:19:26.512Z,14.90
2018-09-12T04:21:55.064Z,14.90
2018-09-12T04:24:23.700Z,14.90
2018-09-12T04:26:52.140Z,14.90
2018-09-12T04:29:20.780Z,14.90
2018-09-12T04:31:49.327Z,14.90
2018-09-12T04:34:18.038Z,14.90
2018-09-12T04:36:46.545Z,14.90
2018-09-12T04:39:15.056Z,14.90
2018-09-12T04:41:43.755Z,14.90
2018-09-12T04:44:12.258Z,14.90
2018-09-12T04:46:40.820Z,14.90
2018-09-12T04:49:09.419Z,14.90
2018-09-12T04:51:37.929Z,14.90
2018-09-12T04:54:06.783Z,14.90
2018-09-12T04:56:35.299Z,14.90
2018-09-12T04:59:03.872Z,14.90
2018-09-12T05:01:32.427Z,14.80
2018-09-12T05:04:00.969Z,14.80
2018-09-12T05:06:29.501Z,14.80
2018-09-12T05:08:58.034Z,14.70
2018-09-12T05:11:26.576Z,14.70
2018-09-12T05:13:55.088Z,14.70
2018-09-12T05:16:23.598Z,14.70
2018-09-12T05:18:52.382Z,14.60
2018-09-12T05:21:20.941Z,14.60
2018-09-12T05:23:49.454Z,14.60
2018-09-12T05:26:18.025Z,14.60
2018-09-12T05:28:46.543Z,14.70
2018-09-12T05:31:15.179Z,14.70
2018-09-12T05:33:43.715Z,14.80
2018-09-12T05:36:12.597Z,14.90
2018-09-12T05:38:41.271Z,15.00
2018-09-12T05:41:09.848Z,15.10
2018-09-12T05:43:39.072Z,15.20
2018-09-12T05:46:07.594Z,15.30
2018-09-12T05:48:36.250Z,15.40
2018-09-12T05:51:04.969Z,15.50
2018-09-12T05:53:33.736Z,15.60
2018-09-12T05:56:02.652Z,15.70
2018-09-12T05:58:31.175Z,15.80
2018-09-12T06:00:59.704Z,15.90
2018-09-12T06:03:28.412Z,16.10
2018-09-12T06:05:56.988Z,16.20
2018-09-12T06:08:25.559Z,16.30
2018-09-12T06:10:54.074Z,16.30
2018-09-12T06:13:22.633Z,16.40
2018-09-12T06:15:51.536Z,16.50
2018-09-12T06:18:20.428Z,16.60
2018-09-12T06:20:49.008Z,16.70
2018-09-12T06:23:17.706Z,16.80
2018-09-12T06:25:46.258Z,16.90
2018-09-12T06:28:15.190Z,17.00
2018-09-12T06:30:44.119Z,17.10
2018-09-12T06:33:12.708Z,17.20
2018-09-12T06:35:41.475Z,17.40
2018-09-12T06:38:10.028Z,17.50
2018-09-12T06:40:38.582Z,17.60
2018-09-12T06:43:07.997Z,17.70
2018-09-12T06:45:36.565Z,17.90
2018-09-12T06:48:05.407Z,18.00
2018-09-12T06:50:34.700Z,18.10
2018-09-12T06:53:04.236Z,18.30
2018-09-12T06:55:33.175Z,18.40
2018-09-12T06:58:01.896Z,18.50
2018-09-12T07:00:30.568Z,18.70
2018-09-12T07:02:59.084Z,18.90
2018-09-12T07:05:27.611Z,19.00
2018-09-12T07:07:56.197Z,19.20
2018-09-12T07:10:24.768Z,19.40
2018-09-12T07:12:53.645Z,19.60
2018-09-12T07:15:22.180Z,19.70
2018-09-12T07:17:50.815Z,19.90
2018-09-12T07:20:19.509Z,20.10
2018-09-12T07:22:48.045Z,20.30
2018-09-12T07:25:16.625Z,20.40
2018-09-12T07:27:45.172Z,20.60
2018-09-12T07:30:13.767Z,20.70
2018-09-12T07:32:42.755Z,20.90
2018-09-12T07:35:11.346Z,21.00
2018-09-12T07:37:39.903Z,21.10
2018-09-12T07:40:08.536Z,21.20
2018-09-12T07:42:38.179Z,21.40
2018-09-12T07:45:07.258Z,21.40
2018-09-12T07:47:35.931Z,21.50
2018-09-12T07:50:04.645Z,21.60
2018-09-12T07:52:33.307Z,21.70
2018-09-12T07:55:02.465Z,21.80
2018-09-12T07:57:31.461Z,21.90
2018-09-12T08:00:00.142Z,22.00
2018-09-12T08:02:29.143Z,22.10
2018-09-12T08:04:57.735Z,22.10
2018-09-12T08:07:26.428Z,22.20
2018-09-12T08:09:55.671Z,22.30
2018-09-12T08:12:24.301Z,22.40
2018-09-12T08:14:53.389Z,22.50
2018-09-12T08:17:22.151Z,22.50
2018-09-12T08:19:50.652Z,22.60
2018-09-12T08:22:19.225Z,22.70
2018-09-12T08:24:48.037Z,22.80
2018-09-12T08:27:16.587Z,22.90
2018-09-12T08:29:45.341Z,23.00
2018-09-12T08:32:14.840Z,23.10
2018-09-12T08:34:43.570Z,23.20
2018-09-12T08:37:12.137Z,23.30
2018-09-12T08:39:40.674Z,23.50
2018-09-12T08:42:09.814Z,23.50
2018-09-12T08:44:38.572Z,23.70
2018-09-12T08:47:07.389Z,23.80
2018-09-12T08:49:37.995Z,23.90
2018-09-12T08:52:06.945Z,24.00
2018-09-12T08:54:35.520Z,24.10
2018-09-12T08:57:04.129Z,24.30
2018-09-12T08:59:32.728Z,24.40
2018-09-12T09:02:01.353Z,24.50
2018-09-12T09:04:29.892Z,24.70
2018-09-12T09:06:58.585Z,24.80
2018-09-12T09:09:27.187Z,24.90
2018-09-12T09:11:55.743Z,25.10
2018-09-12T09:14:24.589Z,25.20
2018-09-12T09:16:53.143Z,25.30
2018-09-12T09:19:21.705Z,25.50
2018-09-12T09:21:50.420Z,25.60
2018-09-12T09:24:18.997Z,25.70
2018-09-12T09:26:47.506Z,25.90
2018-09-12T09:29:16.377Z,26.10
2018-09-12T09:31:44.910Z,26.20
2018-09-12T09:34:13.458Z,26.30
2018-09-12T09:36:42.403Z,26.40
2018-09-12T09:39:12.145Z,26.50
2018-09-12T09:41:41.353Z,26.60
2018-09-12T09:44:10.029Z,26.70
2018-09-12T09:46:38.566Z,26.80
2018-09-12T09:49:07.176Z,26.90
2018-09-12T09:51:35.719Z,26.90
2018-09-12T09:54:04.239Z,27.00
2018-09-12T09:56:32.777Z,27.20
2018-09-12T09:59:01.392Z,27.20
2018-09-12T10:01:35.355Z,27.40
2018-09-12T10:04:09.242Z,27.40
2018-09-12T10:06:43.174Z,27.50
2018-09-12T10:09:17.157Z,27.60
2018-09-12T10:11:45.716Z,27.70
2018-09-12T10:14:14.266Z,27.80
2018-09-12T10:16:42.832Z,27.90
2018-09-12T10:19:11.429Z,28.00
2018-09-12T10:21:40.019Z,28.20
2018-09-12T10:24:09.022Z,28.30
2018-09-12T10:26:37.690Z,28.50
2018-09-12T10:29:06.324Z,28.60
2018-09-12T10:31:35.363Z,28.70
2018-09-12T10:34:03.924Z,28.90
2018-09-12T10:36:32.491Z,29.00
2018-09-12T10:39:01.587Z,29.10
2018-09-12T10:41:30.153Z,29.20
2018-09-12T10:43:58.946Z,29.40
2018-09-12T10:46:27.533Z,29.60
2018-09-12T10:48:56.101Z,30.10
2018-09-12T10:51:24.635Z,30.70
2018-09-12T10:53:53.175Z,31.40
2018-09-12T10:56:21.705Z,32.10
2018-09-12T10:58:50.356Z,32.90
2018-09-12T11:01:18.955Z,33.50
2018-09-12T11:03:48.765Z,34.10
2018-09-12T11:06:17.329Z,34.60
2018-09-12T11:08:45.873Z,34.90
2018-09-12T11:11:14.414Z,35.30
2018-09-12T11:13:43.020Z,35.70
2018-09-12T11:16:12.622Z,36.10
2018-09-12T11:18:41.404Z,36.60
2018-09-12T11:21:10.024Z,37.00
2018-09-12T11:23:38.581Z,37.30
2018-09-12T11:26:07.608Z,37.70
2018-09-12T11:28:37.146Z,38.20
2018-09-12T11:31:07.074Z,38.70
2018-09-12T11:33:35.660Z,39.00
2018-09-12T11:36:04.443Z,39.20
2018-09-12T11:38:33.347Z,39.40
2018-09-12T11:41:02.739Z,39.50
2018-09-12T11:43:31.513Z,39.80
2018-09-12T11:46:00.332Z,39.90
2018-09-12T11:48:28.999Z,40.40
2018-09-12T11:50:57.696Z,40.70
2018-09-12T11:53:26.296Z,40.80
2018-09-12T11:55:54.860Z,41.10
2018-09-12T11:58:23.405Z,41.50
2018-09-12T12:00:52.111Z,41.90
2018-09-12T12:03:20.651Z,41.90
2018-09-12T12:05:49.207Z,42.00
2018-09-12T12:08:17.711Z,42.10
2018-09-12T12:10:46.249Z,42.40
2018-09-12T12:13:14.756Z,43.00
2018-09-12T12:15:43.287Z,43.40
2018-09-12T12:18:11.818Z,43.50
2018-09-12T12:20:40.370Z,43.30
2018-09-12T12:23:08.931Z,43.10
2018-09-12T12:25:37.476Z,43.20
2018-09-12T12:28:06.302Z,43.60
2018-09-12T12:30:34.843Z,44.10
2018-09-12T12:33:03.361Z,44.50
2018-09-12T12:35:31.976Z,44.70
2018-09-12T12:38:00.420Z,44.90
2018-09-12T12:40:28.965Z,45.10
2018-09-12T12:42:57.485Z,45.00
2018-09-12T12:45:26.032Z,45.00
2018-09-12T12:47:54.544Z,45.20
2018-09-12T12:50:23.070Z,45.30
2018-09-12T12:52:51.624Z,45.10
2018-09-12T12:55:20.160Z,45.30
2018-09-12T12:57:48.665Z,45.30
2018-09-12T13:00:17.236Z,45.00
2018-09-12T13:02:45.739Z,45.00
2018-09-12T13:05:14.446Z,45.20
2018-09-12T13:07:43.036Z,45.40
2018-09-12T13:10:11.533Z,45.60
2018-09-12T13:12:40.081Z,45.80
2018-09-12T13:15:08.665Z,46.00
2018-09-12T13:17:37.211Z,46.00
2018-09-12T13:20:06.204Z,46.10
2018-09-12T13:22:34.838Z,46.20
2018-09-12T13:25:03.429Z,46.10
2018-09-12T13:27:32.045Z,46.00
2018-09-12T13:30:00.523Z,46.00
2018-09-12T13:32:29.124Z,46.00
2018-09-12T13:34:57.647Z,46.20
2018-09-12T13:37:26.197Z,46.30
2018-09-12T13:39:54.732Z,46.00
2018-09-12T13:42:23.239Z,45.70
2018-09-12T13:44:51.790Z,45.60
2018-09-12T13:47:20.292Z,45.50
2018-09-12T13:49:48.812Z,45.40
2018-09-12T13:52:17.956Z,45.50
2018-09-12T13:54:46.472Z,45.80
2018-09-12T13:57:14.991Z,46.10
2018-09-12T13:59:43.528Z,46.40
2018-09-12T14:02:12.072Z,46.80
2018-09-12T14:04:40.582Z,47.00
2018-09-12T14:07:09.126Z,47.10
2018-09-12T14:09:37.609Z,46.50
2018-09-12T14:12:06.142Z,46.00
2018-09-12T14:14:34.885Z,46.00
2018-09-12T14:17:03.465Z,45.90
2018-09-12T14:19:32.137Z,46.20
2018-09-12T14:22:00.638Z,46.20
2018-09-12T14:24:29.156Z,46.70
2018-09-12T14:26:57.680Z,47.20
2018-09-12T14:29:26.176Z,47.70
2018-09-12T14:31:54.716Z,48.20
2018-09-12T14:34:23.272Z,48.60
2018-09-12T14:36:51.882Z,49.00
2018-09-12T14:39:20.441Z,49.50
2018-09-12T14:41:48.965Z,49.70
2018-09-12T14:44:17.497Z,49.70
2018-09-12T14:46:46.032Z,49.60
2018-09-12T14:49:14.543Z,49.50
2018-09-12T14:51:43.064Z,49.60
2018-09-12T14:54:11.605Z,49.80
2018-09-12T14:56:40.329Z,49.80
2018-09-12T14:59:09.014Z,50.10
2018-09-12T15:01:37.892Z,50.20
2018-09-12T15:04:06.513Z,50.10
2018-09-12T15:06:35.081Z,49.60
2018-09-12T15:09:05.227Z,49.00
2018-09-12T15:11:33.732Z,48.50
2018-09-12T15:14:02.282Z,47.90
2018-09-12T15:16:30.817Z,47.40
2018-09-12T15:18:59.362Z,46.90
2018-09-12T15:21:27.879Z,46.20
2018-09-12T15:23:56.447Z,46.10
2018-09-12T15:26:25.001Z,46.20
2018-09-12T15:28:53.575Z,46.20
2018-09-12T15:31:22.233Z,46.30
2018-09-12T15:33:50.802Z,46.30
2018-09-12T15:36:19.474Z,46.10
2018-09-12T15:38:48.039Z,45.30
2018-09-12T15:41:17.091Z,44.10
2018-09-12T15:43:51.151Z,42.70
2018-09-12T15:46:21.445Z,41.40
2018-09-12T15:48:50.013Z,40.70
2018-09-12T15:51:18.551Z,40.90
2018-09-12T15:53:47.074Z,41.60
2018-09-12T15:56:15.573Z,42.00
2018-09-12T15:58:44.126Z,42.20
2018-09-12T16:01:12.636Z,42.20
2018-09-12T16:03:42.090Z,41.70
2018-09-12T16:06:10.590Z,41.00
2018-09-12T16:08:39.121Z,40.30
2018-09-12T16:11:07.642Z,40.20
2018-09-12T16:13:36.217Z,40.50
2018-09-12T16:16:04.724Z,41.00
2018-09-12T16:18:33.357Z,41.20
2018-09-12T16:21:01.872Z,41.00
2018-09-12T16:23:30.461Z,40.80
2018-09-12T16:25:58.963Z,40.50
2018-09-12T16:28:27.507Z,40.40
2018-09-12T16:30:56.021Z,40.70
2018-09-12T16:33:24.570Z,40.90
2018-09-12T16:35:53.089Z,41.30
2018-09-12T16:38:21.626Z,41.60
2018-09-12T16:40:50.160Z,41.90
2018-09-12T16:43:18.660Z,42.20
2018-09-12T16:45:47.398Z,42.40
2018-09-12T16:48:15.917Z,42.40
2018-09-12T16:50:44.511Z,42.50
2018-09-12T16:53:12.992Z,42.40
2018-09-12T16:55:41.485Z,42.30
2018-09-12T16:58:10.052Z,41.80
2018-09-12T17:00:38.656Z,41.40
2018-09-12T17:03:07.198Z,40.90
2018-09-12T17:05:35.727Z,40.00
2018-09-12T17:08:04.275Z,39.20
2018-09-12T17:10:32.796Z,38.30
2018-09-12T17:13:01.341Z,37.30
2018-09-12T17:15:29.878Z,36.40
2018-09-12T17:17:58.470Z,35.60
2018-09-12T17:20:26.991Z,34.80
2018-09-12T17:22:55.571Z,34.00
2018-09-12T17:25:24.116Z,33.50
2018-09-12T17:27:52.688Z,33.00
2018-09-12T17:30:21.188Z,32.60
2018-09-12T17:32:49.716Z,32.20
2018-09-12T17:35:18.253Z,31.80
2018-09-12T17:37:46.877Z,31.50
2018-09-12T17:40:15.429Z,31.20
2018-09-12T17:42:44.006Z,30.80
2018-09-12T17:45:12.539Z,30.60
2018-09-12T17:47:43.866Z,30.30
2018-09-12T17:50:12.423Z,30.10
2018-09-12T17:52:40.929Z,29.80
2018-09-12T17:55:09.476Z,29.70
2018-09-12T17:57:37.981Z,29.50
2018-09-12T18:00:06.909Z,29.30
2018-09-12T18:02:35.432Z,29.10
2018-09-12T18:05:04.064Z,28.90
2018-09-12T18:07:32.567Z,28.80
2018-09-12T18:10:01.124Z,28.60
2018-09-12T18:12:29.648Z,28.50
2018-09-12T18:14:58.192Z,28.30
2018-09-12T18:17:26.742Z,28.20
2018-09-12T18:19:55.270Z,28.10
2018-09-12T18:22:23.800Z,27.90
2018-09-12T18:24:52.595Z,27.80
2018-09-12T18:27:21.103Z,27.70
2018-09-12T18:29:49.623Z,27.50
2018-09-12T18:32:18.151Z,27.50
2018-09-12T18:34:46.683Z,27.30
2018-09-12T18:37:15.220Z,27.20
2018-09-12T18:39:43.760Z,27.10
2018-09-12T18:42:12.293Z,27.00
2018-09-12T18:44:40.842Z,26.80
2018-09-12T18:47:09.410Z,26.70
2018-09-12T18:49:37.999Z,26.60
2018-09-12T18:52:06.593Z,26.50
2018-09-12T18:54:35.128Z,26.40
2018-09-12T18:57:03.689Z,26.40
2018-09-12T18:59:32.229Z,26.30
2018-09-12T19:02:02.066Z,26.20
2018-09-12T19:04:30.675Z,26.20
2018-09-12T19:06:59.287Z,26.20
2018-09-12T19:09:27.775Z,26.10
2018-09-12T19:11:56.303Z,26.00
2018-09-12T19:14:24.820Z,26.00
2018-09-12T19:16:53.374Z,25.90
2018-09-12T19:19:21.919Z,25.90
2018-09-12T19:21:50.446Z,25.90
2018-09-12T19:24:18.945Z,25.90
2018-09-12T19:26:47.770Z,25.90
2018-09-12T19:29:16.308Z,25.90
2018-09-12T19:31:44.809Z,25.90
2018-09-12T19:34:13.337Z,26.00
2018-09-12T19:36:41.861Z,25.90
2018-09-12T19:39:10.913Z,25.90
2018-09-12T19:41:40.195Z,25.80
2018-09-12T19:44:19.093Z,25.80
2018-09-12T19:46:47.622Z,25.70
2018-09-12T19:49:16.321Z,25.50
2018-09-12T19:51:44.833Z,25.40
2018-09-12T19:54:13.604Z,25.30
2018-09-12T19:56:42.402Z,25.20
2018-09-12T19:59:10.904Z,25.00
2018-09-12T20:01:39.434Z,24.90
2018-09-12T20:04:08.236Z,24.80
2018-09-12T20:06:36.767Z,24.70
2018-09-12T20:09:07.692Z,24.50
2018-09-12T20:11:36.357Z,24.40
2018-09-12T20:14:04.874Z,24.30
2018-09-12T20:16:33.419Z,24.20
2018-09-12T20:19:01.911Z,24.10
2018-09-12T20:21:30.510Z,24.00
2018-09-12T20:23:59.209Z,23.90
2018-09-12T20:26:27.601Z,23.80
2018-09-12T20:28:56.133Z,23.70
2018-09-12T20:31:24.720Z,23.60
2018-09-12T20:33:53.342Z,23.60
2018-09-12T20:36:21.872Z,23.50
2018-09-12T20:38:50.389Z,23.50
2018-09-12T20:41:18.933Z,23.40
2018-09-12T20:43:47.444Z,23.30
2018-09-12T20:46:15.970Z,23.20
2018-09-12T20:48:44.855Z,23.10
2018-09-12T20:51:13.695Z,23.10
2018-09-12T20:53:42.195Z,23.00
2018-09-12T20:56:10.719Z,22.90
2018-09-12T20:58:39.285Z,22.80
2018-09-12T21:01:07.884Z,22.80
2018-09-12T21:03:36.404Z,22.90
2018-09-12T21:06:05.641Z,22.80
2018-09-12T21:08:35.312Z,22.80
2018-09-12T21:11:04.869Z,22.80
2018-09-12T21:13:34.312Z,22.80
2018-09-12T21:16:04.895Z,22.70
2018-09-12T21:18:34.808Z,22.70
2018-09-12T21:21:03.375Z,22.70
2018-09-12T21:23:32.128Z,22.70
2018-09-12T21:26:00.670Z,22.60
2018-09-12T21:28:29.211Z,22.60
2018-09-12T21:30:57.988Z,22.50
2018-09-12T21:33:49.663Z,22.50
2018-09-12T21:36:18.215Z,22.40
2018-09-12T21:38:46.725Z,22.40
2018-09-12T21:41:16.709Z,22.30
2018-09-12T21:43:45.232Z,22.30
2018-09-12T21:46:13.977Z,22.20
2018-09-12T21:48:42.629Z,22.20
2018-09-12T21:51:11.171Z,22.20
2018-09-12T21:53:39.690Z,22.10
2018-09-12T21:56:08.259Z,22.10
2018-09-12T21:58:36.777Z,22.10
2018-09-12T22:01:05.403Z,22.10
2018-09-12T22:03:34.139Z,22.00
2018-09-12T22:06:02.742Z,22.00
2018-09-12T22:08:31.524Z,22.00
2018-09-12T22:11:00.048Z,22.00
2018-09-12T22:13:28.607Z,22.00
2018-09-12T22:15:57.158Z,21.90
2018-09-12T22:18:25.738Z,21.90
2018-09-12T22:20:55.093Z,21.90
2018-09-12T22:23:23.666Z,21.80
2018-09-12T22:25:52.243Z,21.70
2018-09-12T22:28:20.775Z,21.70
2018-09-12T22:30:49.270Z,21.60
2018-09-12T22:33:17.810Z,21.60
2018-09-12T22:35:46.326Z,21.50
2018-09-12T22:38:15.092Z,21.50
2018-09-12T22:40:43.598Z,21.40
2018-09-12T22:43:12.132Z,21.40
2018-09-12T22:45:40.682Z,21.40
2018-09-12T22:48:09.213Z,21.30
2018-09-12T22:50:37.719Z,21.30
2018-09-12T22:53:06.249Z,21.30
2018-09-12T22:55:34.770Z,21.20
2018-09-12T22:58:03.753Z,21.20
2018-09-12T23:00:32.330Z,21.10
2018-09-12T23:03:00.875Z,21.10
2018-09-12T23:05:29.562Z,21.10
2018-09-12T23:07:58.103Z,21.10
2018-09-12T23:10:26.646Z,21.10
2018-09-12T23:12:55.324Z,21.00
2018-09-12T23:15:23.882Z,21.10
2018-09-12T23:17:52.903Z,21.00
2018-09-12T23:20:21.421Z,21.00
2018-09-12T23:22:50.012Z,21.00
2018-09-12T23:25:18.552Z,20.90
2018-09-12T23:27:47.091Z,20.90
2018-09-12T23:30:15.670Z,20.80
2018-09-12T23:32:44.241Z,20.70
2018-09-12T23:35:12.841Z,20.60
2018-09-12T23:37:41.507Z,20.60
2018-09-12T23:40:10.104Z,20.50
2018-09-12T23:42:38.784Z,20.50
2018-09-12T23:45:07.426Z,20.50
2018-09-12T23:47:35.965Z,20.50
2018-09-12T23:50:04.799Z,20.40
2018-09-12T23:52:33.468Z,20.40
2018-09-12T23:55:03.156Z,20.40
2018-09-12T23:57:31.705Z,20.40
